Time;durP1;ratioP1;P1;durP2;ratioP2;P2;SDS_P1;SDS_P2;PMS_P1;PMS_P2;Temp;Humidity;BMP_temperature;BMP_pressure;BME280_temperature;BME280_humidity;BME280_pressure;Samples;Min_cycle;Max_cycle;Signal;HPM_P1;HPM_P2
2022/09/13 00:01:33;;;;;;;;;;;;;;;21.79;56.13;95434.69;10242151;28;2685;-48
2022/09/13 00:06:34;;;;;;;;;;;;;;;21.79;56.38;95429.41;10241202;28;2900;-48
2022/09/13 00:11:34;;;;;;;;;;;;;;;21.79;55.96;95415.44;10241797;28;2737;-49
2022/09/13 00:16:37;;;;;;;;;;;;;;;21.78;56.07;95427.06;10239384;28;2662;-49
2022/09/13 00:21:37;;;;;;;;;;;;;;;21.79;55.45;95418.06;10245819;28;3308;-49
2022/09/13 00:26:37;;;;;;;;;;;;;;;21.78;55.60;95406.72;10242656;28;2786;-48
2022/09/13 00:31:37;;;;;;;;;;;;;;;21.77;55.52;95405.19;10246078;28;2617;-42
2022/09/13 00:36:38;;;;;;;;;;;;;;;21.78;55.44;95392.78;10246656;28;2579;-41
2022/09/13 00:41:38;;;;;;;;;;;;;;;21.76;55.35;95387.00;10243546;28;3073;-43
2022/09/13 00:46:40;;;;;;;;;;;;;;;21.76;55.40;95392.28;10242899;28;2998;-42
2022/09/13 00:51:41;;;;;;;;;;;;;;;21.77;54.90;95399.13;10258187;28;2877;-42
2022/09/13 00:56:46;;;;;;;;;;;;;;;21.76;54.98;95402.84;10254834;28;2750;-41
2022/09/13 01:01:48;;;;;;;;;;;;;;;21.76;54.96;95398.31;10255596;28;2601;-42
2022/09/13 01:06:48;;;;;;;;;;;;;;;21.75;54.91;95386.22;10238504;28;2844;-41
2022/09/13 01:11:54;;;;;;;;;;;;;;;21.76;54.65;95365.91;10243135;28;2760;-41
2022/09/13 01:16:54;;;;;;;;;;;;;;;21.74;54.48;95358.25;10242885;28;2814;-41
2022/09/13 01:22:13;;;;;;;;;;;;;;;21.75;54.63;95361.69;10245937;28;3090;-43
2022/09/13 01:27:19;;;;;;;;;;;;;;;21.75;54.55;95364.31;10239598;28;2619;-42
2022/09/13 01:32:38;;;;;;;;;;;;;;;21.74;54.29;95352.97;10256527;28;2725;-42
2022/09/13 01:37:42;;;;;;;;;;;;;;;21.74;54.38;95352.97;10244889;28;3137;-41
2022/09/13 01:43:01;;;;;;;;;;;;;;;21.74;54.59;95346.94;10241726;28;2760;-43
2022/09/13 01:48:06;;;;;;;;;;;;;;;21.74;54.26;95346.94;10248375;28;3113;-44
2022/09/13 01:53:30;;;;;;;;;;;;;;;21.73;54.37;95340.88;10247764;28;2586;-48
2022/09/13 01:58:37;;;;;;;;;;;;;;;21.74;54.18;95341.66;10247707;28;2792;-49
2022/09/13 02:03:47;;;;;;;;;;;;;;;21.72;53.72;95338.53;10242117;28;2587;-49
2022/09/13 02:08:51;;;;;;;;;;;;;;;21.72;54.03;95343.81;10247237;28;3060;-49
2022/09/13 02:13:56;;;;;;;;;;;;;;;21.72;54.22;95347.22;10246846;28;2631;-49
2022/09/13 02:18:58;;;;;;;;;;;;;;;21.73;54.07;95348.78;10248219;28;3028;-49
2022/09/13 02:24:05;;;;;;;;;;;;;;;21.72;53.99;95343.81;10262378;28;2767;-49
2022/09/13 02:29:07;;;;;;;;;;;;;;;21.72;53.72;95343.81;10246280;28;2893;-41
2022/09/13 02:34:09;;;;;;;;;;;;;;;21.72;54.07;95354.38;10264081;28;2942;-41
2022/09/13 02:39:13;;;;;;;;;;;;;;;21.72;53.67;95357.00;10258119;28;2853;-48
2022/09/13 02:44:13;;;;;;;;;;;;;;;21.72;53.52;95346.44;10245723;28;3036;-48
2022/09/13 02:49:16;;;;;;;;;;;;;;;21.70;53.67;95345.97;10251419;28;2755;-48
2022/09/13 02:54:24;;;;;;;;;;;;;;;21.71;53.73;95358.06;10263175;28;2672;-48
2022/09/13 02:59:25;;;;;;;;;;;;;;;21.70;53.73;95359.91;10264519;28;2723;-48
2022/09/13 03:04:26;;;;;;;;;;;;;;;21.70;53.29;95354.63;10252028;28;2759;-48
2022/09/13 03:09:26;;;;;;;;;;;;;;;21.70;53.57;95352.00;10247596;28;2634;-48
2022/09/13 03:14:26;;;;;;;;;;;;;;;21.70;53.45;95364.41;10246221;28;3001;-48
2022/09/13 03:19:27;;;;;;;;;;;;;;;21.69;53.59;95360.22;10244594;28;2562;-48
2022/09/13 03:24:31;;;;;;;;;;;;;;;21.69;53.46;95371.53;10247050;28;2590;-48
2022/09/13 03:29:43;;;;;;;;;;;;;;;21.69;53.00;95355.72;10258041;28;2733;-48
2022/09/13 03:34:47;;;;;;;;;;;;;;;21.69;52.80;95339.09;10250115;28;2777;-48
2022/09/13 03:39:50;;;;;;;;;;;;;;;21.68;53.09;95338.31;10242798;28;3150;-48
2022/09/13 03:44:50;;;;;;;;;;;;;;;21.67;52.80;95326.22;10259305;28;2684;-48
2022/09/13 03:49:51;;;;;;;;;;;;;;;21.68;52.89;95342.78;10263786;28;2679;-47
2022/09/13 03:54:51;;;;;;;;;;;;;;;21.68;52.73;95353.34;10241700;28;3021;-47
2022/09/13 03:59:52;;;;;;;;;;;;;;;21.69;52.73;95354.94;10242880;28;2964;-48
2022/09/13 04:04:53;;;;;;;;;;;;;;;21.68;52.65;95354.13;10256963;28;2732;-49
2022/09/13 04:09:53;;;;;;;;;;;;;;;21.67;52.30;95349.94;10247628;28;3002;-49
2022/09/13 04:14:53;;;;;;;;;;;;;;;21.67;52.30;95346.53;10241407;28;2993;-47
2022/09/13 04:19:53;;;;;;;;;;;;;;;21.66;52.11;95344.94;10244878;28;2660;-48
2022/09/13 04:24:54;;;;;;;;;;;;;;;21.66;51.78;95339.66;10243904;28;2753;-48
2022/09/13 04:29:54;;;;;;;;;;;;;;;21.66;52.13;95350.22;10246775;28;2744;-48
2022/09/13 04:34:55;;;;;;;;;;;;;;;21.65;51.99;95344.19;10244542;28;3061;-48
2022/09/13 04:39:55;;;;;;;;;;;;;;;21.65;51.77;95344.19;10249954;28;2602;-48
2022/09/13 04:44:55;;;;;;;;;;;;;;;21.66;51.99;95355.50;10243356;28;2812;-48
2022/09/13 04:49:56;;;;;;;;;;;;;;;21.66;51.80;95351.00;10244486;28;2678;-48
2022/09/13 04:55:00;;;;;;;;;;;;;;;21.65;51.49;95354.72;10241409;28;3009;-48
2022/09/13 05:00:00;;;;;;;;;;;;;;;21.65;51.59;95359.22;10243711;28;2628;-48
2022/09/13 05:05:04;;;;;;;;;;;;;;;21.66;51.60;95358.13;10242016;28;2678;-48
2022/09/13 05:10:05;;;;;;;;;;;;;;;21.66;51.89;95355.50;10241018;28;3125;-48
2022/09/13 05:15:05;;;;;;;;;;;;;;;21.67;51.88;95357.06;10237752;28;2587;-48
2022/09/13 05:20:06;;;;;;;;;;;;;;;21.67;52.03;95362.34;10239816;28;2755;-48
2022/09/13 05:25:07;;;;;;;;;;;;;;;21.68;52.07;95363.91;10247188;28;3142;-48
2022/09/13 05:30:07;;;;;;;;;;;;;;;21.66;51.92;95368.69;10249731;28;2640;-48
2022/09/13 05:35:08;;;;;;;;;;;;;;;21.68;51.91;95371.81;10241643;28;2777;-48
2022/09/13 05:40:08;;;;;;;;;;;;;;;21.68;51.88;95371.81;10246917;28;2737;-48
2022/09/13 05:45:09;;;;;;;;;;;;;;;21.68;51.98;95361.25;10247718;28;2760;-48
2022/09/13 05:50:10;;;;;;;;;;;;;;;21.68;52.08;95369.19;10259962;28;3082;-48
2022/09/13 05:55:11;;;;;;;;;;;;;;;21.68;52.20;95369.19;10243661;28;3060;-48
2022/09/13 06:00:12;;;;;;;;;;;;;;;21.68;51.92;95361.25;10249507;28;2582;-42
2022/09/13 06:05:18;;;;;;;;;;;;;;;21.67;52.13;95372.91;10242635;28;2704;-42
2022/09/13 06:10:19;;;;;;;;;;;;;;;21.68;51.83;95364.69;10245615;28;3139;-41
2022/09/13 06:15:19;;;;;;;;;;;;;;;21.68;52.06;95358.63;10245997;28;2795;-44
2022/09/13 06:20:20;;;;;;;;;;;;;;;21.68;51.91;95369.19;10245537;28;2775;-42
2022/09/13 06:25:21;;;;;;;;;;;;;;;21.68;52.17;95369.19;10240372;28;2570;-41
2022/09/13 06:30:22;;;;;;;;;;;;;;;21.68;51.92;95361.25;10239549;28;2749;-43
2022/09/13 06:35:23;;;;;;;;;;;;;;;21.68;52.02;95362.06;10242814;28;2737;-42
2022/09/13 06:40:23;;;;;;;;;;;;;;;21.68;51.80;95354.13;10240948;28;3171;-41
2022/09/13 06:45:23;;;;;;;;;;;;;;;21.67;52.04;95363.13;10257864;28;2801;-48
2022/09/13 06:50:24;;;;;;;;;;;;;;;21.68;51.72;95358.63;10237840;28;3068;-48
2022/09/13 06:55:24;;;;;;;;;;;;;;;21.67;52.06;95368.41;10240529;28;3113;-48
2022/09/13 07:00:26;;;;;;;;;;;;;;;21.69;51.92;95365.47;10239644;28;2575;-48
2022/09/13 07:05:27;;;;;;;;;;;;;;;21.68;51.70;95350.72;10236173;28;3078;-48
2022/09/13 07:10:27;;;;;;;;;;;;;;;21.68;51.85;95348.88;10236839;28;2877;-48
2022/09/13 07:15:27;;;;;;;;;;;;;;;21.69;52.13;95357.56;10238836;28;2557;-48
2022/09/13 07:20:27;;;;;;;;;;;;;;;21.69;52.00;95362.84;10237909;28;2797;-48
2022/09/13 07:25:28;;;;;;;;;;;;;;;21.69;52.12;95368.91;10238443;28;2705;-49
2022/09/13 07:30:28;;;;;;;;;;;;;;;21.70;52.18;95367.06;10316874;23;3555;-41
2022/09/13 07:35:28;;;;;;;;;;;;;;;21.70;51.91;95367.81;10316695;28;2114;-42
2022/09/13 07:40:29;;;;;;;;;;;;;;;21.70;52.21;95352.00;10315987;28;2168;-41
2022/09/13 07:45:29;;;;;;;;;;;;;;;21.70;52.14;95367.81;10314196;28;1924;-48
2022/09/13 07:50:29;;;;;;;;;;;;;;;21.71;52.36;95368.63;10319344;28;1898;-48
2022/09/13 07:55:30;;;;;;;;;;;;;;;21.69;52.64;95370.75;10316639;28;2005;-49
2022/09/13 08:00:30;;;;;;;;;;;;;;;21.64;53.04;95373.47;10311969;28;1916;-45
2022/09/13 08:05:31;;;;;;;;;;;;;;;21.63;53.19;95364.78;10318325;28;1877;-42
2022/09/13 08:10:34;;;;;;;;;;;;;;;21.63;53.38;95369.28;10318424;28;1762;-46
2022/09/13 08:15:34;;;;;;;;;;;;;;;21.64;53.22;95362.91;10316241;28;2088;-43
2022/09/13 08:20:36;;;;;;;;;;;;;;;21.63;53.38;95361.38;10314049;28;1846;-42
2022/09/13 08:25:37;;;;;;;;;;;;;;;21.65;53.40;95359.22;10313989;28;1957;-43
2022/09/13 08:30:37;;;;;;;;;;;;;;;21.66;53.20;95368.69;10319567;28;1977;-44
2022/09/13 08:35:38;;;;;;;;;;;;;;;21.66;53.39;95360.78;10319038;28;1969;-43
2022/09/13 08:40:39;;;;;;;;;;;;;;;21.66;53.33;95366.03;10312653;28;1906;-42
2022/09/13 08:45:39;;;;;;;;;;;;;;;21.68;53.29;95361.25;10315035;28;1925;-49
2022/09/13 08:50:40;;;;;;;;;;;;;;;21.66;53.04;95363.41;10314783;28;1924;-49
2022/09/13 08:55:44;;;;;;;;;;;;;;;21.66;53.20;95358.91;10316431;28;2237;-49
2022/09/13 09:00:46;;;;;;;;;;;;;;;21.68;53.08;95354.13;10323275;28;2094;-49
2022/09/13 09:05:47;;;;;;;;;;;;;;;21.65;53.20;95353.94;10332048;28;1830;-49
2022/09/13 09:10:49;;;;;;;;;;;;;;;21.67;53.33;95351.81;10323072;28;1949;-49
2022/09/13 09:15:50;;;;;;;;;;;;;;;21.77;52.75;95359.53;10319355;28;1907;-45
2022/09/13 09:21:00;;;;;;;;;;;;;;;21.70;53.27;95356.50;10339991;28;1897;-42
2022/09/13 09:26:21;;;;;;;;;;;;;;;21.70;53.34;95357.28;10320361;28;1962;-43
2022/09/13 09:31:48;;;;;;;;;;;;;;;21.71;53.44;95344.88;10316337;28;1902;-42
2022/09/13 09:36:53;;;;;;;;;;;;;;;21.74;53.34;95342.44;10319119;28;1981;-43
2022/09/13 09:41:54;;;;;;;;;;;;;;;21.74;53.64;95336.38;10347497;28;1837;-43
2022/09/13 09:46:55;;;;;;;;;;;;;;;21.73;53.56;95345.34;10313376;28;1913;-44
2022/09/13 09:51:55;;;;;;;;;;;;;;;21.81;53.80;95352.59;10318380;28;1933;-45
2022/09/13 09:56:56;;;;;;;;;;;;;;;21.77;53.88;95336.59;10322065;28;1907;-45
2022/09/13 10:02:00;;;;;;;;;;;;;;;21.77;53.91;95320.75;10314051;28;1850;-45
2022/09/13 10:07:16;;;;;;;;;;;;;;;21.78;53.73;95316.28;10318965;28;1901;-45
2022/09/13 10:12:24;;;;;;;;;;;;;;;21.78;53.66;95306.47;10315940;28;1876;-45
2022/09/13 10:17:27;;;;;;;;;;;;;;;21.80;53.73;95319.41;10318016;28;1961;-43
2022/09/13 10:22:29;;;;;;;;;;;;;;;21.80;53.64;95309.59;10327523;28;1817;-44
2022/09/13 10:27:34;;;;;;;;;;;;;;;21.81;53.76;95299.84;10319981;28;1801;-43
2022/09/13 10:32:34;;;;;;;;;;;;;;;21.83;53.78;95300.34;10324180;28;2075;-44
2022/09/13 10:37:35;;;;;;;;;;;;;;;21.83;53.76;95285.31;10324045;28;1847;-43
2022/09/13 10:42:35;;;;;;;;;;;;;;;21.86;53.76;95289.22;10337690;28;1870;-44
2022/09/13 10:47:38;;;;;;;;;;;;;;;21.86;53.58;95289.22;10320279;28;1858;-42
2022/09/13 10:52:49;;;;;;;;;;;;;;;21.87;53.81;95282.88;10322670;28;1903;-45
2022/09/13 10:57:50;;;;;;;;;;;;;;;21.88;53.93;95288.94;10312220;28;1947;-43
2022/09/13 11:03:00;;;;;;;;;;;;;;;21.88;53.93;95283.66;10310725;28;1881;-45
2022/09/13 11:08:12;;;;;;;;;;;;;;;21.90;54.00;95281.50;10316061;28;1850;-43
2022/09/13 11:13:12;;;;;;;;;;;;;;;21.90;53.70;95279.66;10317524;28;1937;-42
2022/09/13 11:18:16;;;;;;;;;;;;;;;21.91;54.07;95283.09;10317987;28;1940;-43
2022/09/13 11:23:35;;;;;;;;;;;;;;;21.91;53.86;95269.88;10321214;28;1870;-42
2022/09/13 11:28:40;;;;;;;;;;;;;;;21.91;54.08;95270.66;10317025;28;1908;-45
2022/09/13 11:33:40;;;;;;;;;;;;;;;21.92;53.68;95271.44;10348366;28;1971;-42
2022/09/13 11:38:40;;;;;;;;;;;;;;;21.92;54.06;95272.22;10317681;28;1950;-44
2022/09/13 11:43:56;;;;;;;;;;;;;;;21.93;53.98;95267.75;10314975;28;1857;-43
2022/09/13 11:49:18;;;;;;;;;;;;;;;21.91;53.86;95273.28;10318010;28;2188;-44
2022/09/13 11:54:28;;;;;;;;;;;;;;;21.92;53.99;95274.09;10323104;28;1965;-42
2022/09/13 11:59:36;;;;;;;;;;;;;;;21.92;53.66;95276.72;10319567;28;1863;-42
2022/09/13 12:04:37;;;;;;;;;;;;;;;21.91;53.79;95278.56;10320400;28;1993;-43
2022/09/13 12:09:39;;;;;;;;;;;;;;;21.92;54.07;95274.88;10322560;28;1921;-43
2022/09/13 12:14:49;;;;;;;;;;;;;;;21.92;53.92;95269.59;10302646;28;1938;-43
2022/09/13 12:19:50;;;;;;;;;;;;;;;21.95;54.02;95273.50;10316856;28;1929;-43
2022/09/13 12:24:51;;;;;;;;;;;;;;;21.96;54.15;95260.00;10316789;28;1885;-43
2022/09/13 12:29:52;;;;;;;;;;;;;;;21.99;53.79;95263.94;10346738;28;1964;-43
2022/09/13 12:35:06;;;;;;;;;;;;;;;21.98;54.16;95257.84;10299693;28;2030;-43
2022/09/13 12:40:25;;;;;;;;;;;;;;;21.99;53.97;95248.09;10330384;28;1809;-43
2022/09/13 12:45:27;;;;;;;;;;;;;;;22.01;54.32;95241.41;10317687;28;1999;-42
2022/09/13 12:50:33;;;;;;;;;;;;;;;22.02;53.86;95232.44;10321333;28;1916;-42
2022/09/13 12:55:37;;;;;;;;;;;;;;;22.03;54.30;95239.28;10321215;28;1903;-43
2022/09/13 13:00:47;;;;;;;;;;;;;;;22.04;54.29;95238.22;10316772;28;1944;-42
2022/09/13 13:05:48;;;;;;;;;;;;;;;22.07;53.90;95240.25;10318334;28;2302;-43
2022/09/13 13:10:59;;;;;;;;;;;;;;;22.09;54.23;95248.66;10314973;28;1707;-43
2022/09/13 13:16:01;;;;;;;;;;;;;;;22.09;54.04;95240.72;10310954;28;2144;-42
2022/09/13 13:21:04;;;;;;;;;;;;;;;22.10;54.15;95242.31;10316280;28;2095;-43
2022/09/13 13:26:09;;;;;;;;;;;;;;;22.11;54.08;95246.53;10311905;28;1913;-43
2022/09/13 13:31:09;;;;;;;;;;;;;;;22.11;54.06;95233.31;10314017;28;1822;-45
2022/09/13 13:36:30;;;;;;;;;;;;;;;22.11;53.84;95230.69;10314634;28;2021;-44
2022/09/13 13:41:31;;;;;;;;;;;;;;;22.12;53.60;95228.81;10314449;28;1901;-43
2022/09/13 13:46:31;;;;;;;;;;;;;;;22.13;53.91;95217.19;10318887;28;1902;-43
2022/09/13 13:51:32;;;;;;;;;;;;;;;22.16;53.91;95216.56;10321467;28;1834;-43
2022/09/13 13:56:45;;;;;;;;;;;;;;;22.17;54.12;95211.03;10319545;28;2142;-43
2022/09/13 14:01:47;;;;;;;;;;;;;;;22.19;54.13;95210.72;10320988;28;1750;-43
2022/09/13 14:06:51;;;;;;;;;;;;;;;22.19;54.24;95206.22;10331423;28;1995;-43
2022/09/13 14:12:09;;;;;;;;;;;;;;;22.19;54.25;95198.31;10318249;28;1937;-45
2022/09/13 14:17:09;;;;;;;;;;;;;;;22.18;53.94;95199.38;10318236;28;2100;-45
2022/09/13 14:22:12;;;;;;;;;;;;;;;22.15;53.73;95202.63;10320060;28;1882;-44
2022/09/13 14:27:23;;;;;;;;;;;;;;;22.13;53.75;95202.13;10337137;28;1944;-44
2022/09/13 14:32:24;;;;;;;;;;;;;;;22.12;53.47;95202.41;10323041;28;1894;-44
2022/09/13 14:37:26;;;;;;;;;;;;;;;22.12;53.20;95199.78;10318817;28;2048;-45
2022/09/13 14:42:26;;;;;;;;;;;;;;;22.10;53.26;95194.78;10319283;28;1967;-47
2022/09/13 14:47:41;;;;;;;;;;;;;;;22.10;53.36;95191.38;10346856;28;2058;-44
2022/09/13 14:52:46;;;;;;;;;;;;;;;22.09;53.12;95182.66;10320172;28;1861;-44
2022/09/13 14:57:48;;;;;;;;;;;;;;;22.10;53.21;95180.81;10320486;28;1889;-43
2022/09/13 15:02:50;;;;;;;;;;;;;;;22.09;53.31;95166.81;10319906;28;1962;-44
2022/09/13 15:07:51;;;;;;;;;;;;;;;22.09;52.94;95158.91;10336284;28;1752;-44
2022/09/13 15:13:01;;;;;;;;;;;;;;;22.09;53.09;95145.72;10315993;28;2133;-43
2022/09/13 15:18:06;;;;;;;;;;;;;;;22.08;53.16;95146.00;10315774;28;1827;-48
2022/09/13 15:23:12;;;;;;;;;;;;;;;22.08;53.16;95146.81;10347913;28;1940;-44
2022/09/13 15:28:23;;;;;;;;;;;;;;;22.07;53.22;95145.22;10312670;28;1970;-44
2022/09/13 15:33:24;;;;;;;;;;;;;;;22.08;52.97;95143.38;10349655;28;2003;-48
2022/09/13 15:38:30;;;;;;;;;;;;;;;22.08;53.14;95136.25;10326826;28;1812;-46
2022/09/13 15:43:30;;;;;;;;;;;;;;;22.07;53.31;95126.75;10324136;28;1826;-47
2022/09/13 15:48:31;;;;;;;;;;;;;;;22.08;53.29;95109.06;10326402;28;1929;-43
2022/09/13 15:53:32;;;;;;;;;;;;;;;22.06;53.43;95119.94;10322640;28;1906;-43
2022/09/13 15:58:32;;;;;;;;;;;;;;;22.06;53.26;95112.00;10330291;28;1866;-44
2022/09/13 16:03:32;;;;;;;;;;;;;;;22.06;53.25;95105.94;10318624;28;1806;-44
2022/09/13 16:08:33;;;;;;;;;;;;;;;22.04;53.44;95114.16;10322971;28;2104;-43
2022/09/13 16:13:33;;;;;;;;;;;;;;;22.06;53.24;95100.66;10325609;28;1926;-43
2022/09/13 16:18:43;;;;;;;;;;;;;;;22.06;53.13;95103.31;10322411;28;1790;-47
2022/09/13 16:23:44;;;;;;;;;;;;;;;22.05;53.05;95102.50;10334280;28;1893;-43
2022/09/13 16:28:44;;;;;;;;;;;;;;;22.06;53.29;95098.03;10324945;28;2061;-44
2022/09/13 16:33:44;;;;;;;;;;;;;;;22.05;53.32;95099.88;10326799;28;1914;-43
2022/09/13 16:38:44;;;;;;;;;;;;;;;22.06;53.17;95111.22;10327032;28;1894;-43
2022/09/13 16:43:45;;;;;;;;;;;;;;;22.05;53.53;95118.34;10332274;28;1878;-42
2022/09/13 16:48:52;;;;;;;;;;;;;;;22.04;53.62;95110.72;10318217;28;2126;-45
2022/09/13 16:53:53;;;;;;;;;;;;;;;22.08;54.26;95103.78;10325077;28;1950;-43
2022/09/13 16:58:54;;;;;;;;;;;;;;;22.10;54.56;95106.91;10324378;28;1866;-42
2022/09/13 17:03:55;;;;;;;;;;;;;;;22.14;54.75;95099.94;10320828;28;1831;-45
2022/09/13 17:08:57;;;;;;;;;;;;;;;22.15;54.74;95112.88;10324452;28;2098;-43
2022/09/13 17:13:57;;;;;;;;;;;;;;;22.18;54.60;95106.19;10320152;28;1915;-44
2022/09/13 17:18:58;;;;;;;;;;;;;;;22.18;54.94;95109.63;10352068;28;1866;-43
2022/09/13 17:23:59;;;;;;;;;;;;;;;22.17;54.76;95097.50;10327090;28;1862;-43
2022/09/13 17:28:59;;;;;;;;;;;;;;;22.22;54.44;95094.75;10330013;28;2099;-41
2022/09/13 17:34:00;;;;;;;;;;;;;;;22.27;55.01;95089.34;10330383;28;1975;-42
2022/09/13 17:39:00;;;;;;;;;;;;;;;22.26;55.29;95087.78;10332806;28;1811;-44
2022/09/13 17:44:00;;;;;;;;;;;;;;;22.29;55.30;95086.41;10348452;28;1921;-42
2022/09/13 17:49:01;;;;;;;;;;;;;;;22.30;55.16;95083.47;10336577;28;2251;-43
2022/09/13 17:54:02;;;;;;;;;;;;;;;22.30;55.04;95086.09;10329220;28;1951;-45
2022/09/13 17:59:23;;;;;;;;;;;;;;;22.32;55.23;95076.03;10333204;28;1909;-43
2022/09/13 18:04:23;;;;;;;;;;;;;;;22.31;55.06;95078.97;10318767;28;1890;-45
2022/09/13 18:09:24;;;;;;;;;;;;;;;22.32;55.04;95083.94;10327870;28;1910;-44
2022/09/13 18:14:26;;;;;;;;;;;;;;;22.30;55.39;95075.53;10326928;28;1976;-41
2022/09/13 18:19:26;;;;;;;;;;;;;;;22.32;55.16;95080.50;10325840;28;2198;-45
2022/09/13 18:24:27;;;;;;;;;;;;;;;22.33;55.08;95074.94;10318021;28;1893;-42
2022/09/13 18:29:27;;;;;;;;;;;;;;;22.32;55.14;95076.03;10315310;28;1813;-43
2022/09/13 18:34:28;;;;;;;;;;;;;;;22.31;55.53;95071.03;10318952;28;1906;-42
2022/09/13 18:39:28;;;;;;;;;;;;;;;22.31;55.57;95081.59;10314223;28;1874;-43
2022/09/13 18:44:29;;;;;;;;;;;;;;;22.30;55.60;95086.09;10315546;28;1819;-45
2022/09/13 18:49:29;;;;;;;;;;;;;;;22.30;55.51;95083.47;10318600;28;1917;-44
2022/09/13 18:54:29;;;;;;;;;;;;;;;22.30;55.41;95086.09;10320164;28;1988;-43
2022/09/13 18:59:32;;;;;;;;;;;;;;;22.30;55.65;95083.47;10317058;28;1909;-42
2022/09/13 19:04:34;;;;;;;;;;;;;;;22.34;55.83;95081.78;10344778;28;1933;-44
2022/09/13 19:09:35;;;;;;;;;;;;;;;22.33;55.81;95085.50;10321112;28;1901;-45
2022/09/13 19:14:35;;;;;;;;;;;;;;;22.32;55.85;95073.38;10319342;28;1981;-43
2022/09/13 19:19:36;;;;;;;;;;;;;;;22.34;55.75;95076.50;10325610;28;1872;-44
2022/09/13 19:24:37;;;;;;;;;;;;;;;22.32;55.70;95076.03;10323520;28;1817;-44
2022/09/13 19:29:37;;;;;;;;;;;;;;;22.34;56.12;95087.06;10318042;28;1904;-44
2022/09/13 19:34:38;;;;;;;;;;;;;;;22.35;55.85;95083.34;10322481;28;1964;-44
2022/09/13 19:39:38;;;;;;;;;;;;;;;22.33;55.93;95074.94;10328232;28;2395;-45
2022/09/13 19:44:39;;;;;;;;;;;;;;;22.36;55.71;95052.44;10320852;28;1937;-42
2022/09/13 19:49:39;;;;;;;;;;;;;;;22.34;56.20;95057.25;10321997;28;2272;-44
2022/09/13 19:54:39;;;;;;;;;;;;;;;22.34;55.83;95050.09;10324985;28;1948;-42
2022/09/13 19:59:40;;;;;;;;;;;;;;;22.36;55.84;95047.94;10321582;28;1973;-42
2022/09/13 20:04:40;;;;;;;;;;;;;;;22.36;55.92;95044.53;10318561;28;1801;-49
2022/09/13 20:09:41;;;;;;;;;;;;;;;22.32;55.81;95036.41;10321227;28;1948;-49
2022/09/13 20:14:41;;;;;;;;;;;;;;;22.30;55.99;95033.28;10348559;28;1910;-48
2022/09/13 20:19:42;;;;;;;;;;;;;;;22.29;56.02;95026.47;10323362;28;2036;-49
2022/09/13 20:24:44;;;;;;;;;;;;;;;22.29;55.81;95026.47;10316884;28;1851;-49
2022/09/13 20:29:45;;;;;;;;;;;;;;;22.26;56.14;95027.06;10319519;28;1948;-49
2022/09/13 20:34:47;;;;;;;;;;;;;;;22.25;56.18;95020.22;10318576;28;1913;-49
2022/09/13 20:39:47;;;;;;;;;;;;;;;22.25;56.11;95011.53;10318053;28;1886;-49
2022/09/13 20:44:48;;;;;;;;;;;;;;;22.24;56.44;95013.38;10317337;28;1910;-49
2022/09/13 20:49:48;;;;;;;;;;;;;;;22.22;56.16;95015.53;10321411;28;1832;-49
2022/09/13 20:54:53;;;;;;;;;;;;;;;22.21;56.30;95019.28;10332751;28;1909;-49
2022/09/13 20:59:53;;;;;;;;;;;;;;;22.21;56.40;95010.56;10325522;28;1934;-41
2022/09/13 21:04:55;;;;;;;;;;;;;;;22.21;56.45;95018.50;10326778;28;1818;-42
2022/09/13 21:09:59;;;;;;;;;;;;;;;22.20;56.26;95022.97;10327137;28;1870;-42
2022/09/13 21:15:00;;;;;;;;;;;;;;;22.20;56.15;95030.13;10322297;28;1906;-45
2022/09/13 21:20:01;;;;;;;;;;;;;;;22.20;56.38;95033.53;10321522;28;1876;-41
2022/09/13 21:25:01;;;;;;;;;;;;;;;22.19;56.57;95036.50;10320332;28;1949;-45
2022/09/13 21:30:01;;;;;;;;;;;;;;;22.19;56.46;95037.28;10327491;28;1925;-42
2022/09/13 21:35:02;;;;;;;;;;;;;;;22.19;56.34;95042.56;10321878;28;1978;-42
2022/09/13 21:40:02;;;;;;;;;;;;;;;22.19;56.16;95036.50;10327260;28;1984;-44
2022/09/13 21:45:03;;;;;;;;;;;;;;;22.18;56.42;95032.28;10327204;28;1972;-41
2022/09/13 21:50:03;;;;;;;;;;;;;;;22.16;56.42;95027.31;10328427;28;2009;-45
2022/09/13 21:55:03;;;;;;;;;;;;;;;22.17;56.17;95044.72;10327304;28;1978;-42
2022/09/13 22:00:04;;;;;;;;;;;;;;;22.18;56.24;95043.63;10333869;28;1818;-42
2022/09/13 22:05:05;;;;;;;;;;;;;;;22.16;56.23;95053.69;10330445;28;1940;-45
2022/09/13 22:10:05;;;;;;;;;;;;;;;22.16;56.00;95077.47;10328337;28;2394;-43
2022/09/13 22:15:06;;;;;;;;;;;;;;;22.17;56.11;95065.84;10326346;28;2225;-43
2022/09/13 22:20:06;;;;;;;;;;;;;;;22.15;55.77;95065.34;10342819;28;2198;-45
2022/09/13 22:25:07;;;;;;;;;;;;;;;22.16;56.20;95053.69;10326132;28;1920;-47
2022/09/13 22:30:08;;;;;;;;;;;;;;;22.15;56.14;95023.13;10325162;28;2352;-43
2022/09/13 22:35:08;;;;;;;;;;;;;;;22.16;55.84;95015.97;10326759;28;2202;-41
2022/09/13 22:40:08;;;;;;;;;;;;;;;22.15;55.94;95014.41;10329480;28;1984;-42
2022/09/13 22:45:09;;;;;;;;;;;;;;;22.14;56.03;95007.56;10325972;28;1944;-42
2022/09/13 22:50:09;;;;;;;;;;;;;;;22.15;55.75;95011.78;10328364;28;1994;-43
2022/09/13 22:55:18;;;;;;;;;;;;;;;22.13;55.77;95014.72;10325847;28;1898;-44
2022/09/13 23:00:18;;;;;;;;;;;;;;;22.13;56.02;95012.09;10325720;28;1991;-42
2022/09/13 23:05:21;;;;;;;;;;;;;;;22.13;55.57;95017.38;10323135;28;1878;-43
2022/09/13 23:10:21;;;;;;;;;;;;;;;22.13;55.80;95013.94;10329818;28;1925;-46
2022/09/13 23:15:23;;;;;;;;;;;;;;;22.14;55.67;95018.91;10327444;28;1988;-42
2022/09/13 23:20:23;;;;;;;;;;;;;;;22.14;55.88;95015.47;10328354;28;1937;-43
2022/09/13 23:25:24;;;;;;;;;;;;;;;22.14;55.80;95003.06;10320221;28;2066;-43
2022/09/13 23:30:24;;;;;;;;;;;;;;;22.12;55.73;95015.00;10324124;28;2178;-42
2022/09/13 23:35:24;;;;;;;;;;;;;;;22.13;55.57;95006.03;10324276;28;1974;-44
2022/09/13 23:40:27;;;;;;;;;;;;;;;22.11;55.59;95001.06;10324985;28;1933;-45
2022/09/13 23:45:28;;;;;;;;;;;;;;;22.11;55.63;95005.53;10325172;28;1902;-47
2022/09/13 23:50:28;;;;;;;;;;;;;;;22.11;55.65;94987.06;10328385;28;1941;-44
2022/09/13 23:55:28;;;;;;;;;;;;;;;22.11;55.58;94987.84;10325085;28;2133;-42
